sensor_id;sensor_type;location;lat;lon;timestamp;temperature;humidity
72320;SHT30;60269;52.502;16.732;2023-06-14T00:01:38;13.83;82.74
72320;SHT30;60269;52.502;16.732;2023-06-14T00:05:10;13.79;83.06
72320;SHT30;60269;52.502;16.732;2023-06-14T00:08:44;13.90;82.96
72320;SHT30;60269;52.502;16.732;2023-06-14T00:12:16;13.86;83.16
72320;SHT30;60269;52.502;16.732;2023-06-14T00:15:48;13.97;83.35
72320;SHT30;60269;52.502;16.732;2023-06-14T00:19:20;13.82;85.66
72320;SHT30;60269;52.502;16.732;2023-06-14T00:22:53;13.70;85.49
72320;SHT30;60269;52.502;16.732;2023-06-14T00:26:26;13.67;84.79
72320;SHT30;60269;52.502;16.732;2023-06-14T00:29:59;13.67;84.67
72320;SHT30;60269;52.502;16.732;2023-06-14T00:33:31;13.79;84.18
72320;SHT30;60269;52.502;16.732;2023-06-14T00:37:03;13.83;83.84
72320;SHT30;60269;52.502;16.732;2023-06-14T00:40:35;13.76;84.02
72320;SHT30;60269;52.502;16.732;2023-06-14T00:44:07;13.83;84.03
72320;SHT30;60269;52.502;16.732;2023-06-14T00:47:41;13.83;83.95
72320;SHT30;60269;52.502;16.732;2023-06-14T00:51:14;13.84;84.19
72320;SHT30;60269;52.502;16.732;2023-06-14T00:54:48;13.77;84.58
72320;SHT30;60269;52.502;16.732;2023-06-14T00:58:21;13.73;84.98
72320;SHT30;60269;52.502;16.732;2023-06-14T01:01:53;13.69;85.22
72320;SHT30;60269;52.502;16.732;2023-06-14T01:05:25;13.67;85.50
72320;SHT30;60269;52.502;16.732;2023-06-14T01:16:30;13.44;88.27
72320;SHT30;60269;52.502;16.732;2023-06-14T01:20:04;13.26;89.71
72320;SHT30;60269;52.502;16.732;2023-06-14T01:23:41;13.05;90.96
72320;SHT30;60269;52.502;16.732;2023-06-14T01:27:14;12.93;91.84
72320;SHT30;60269;52.502;16.732;2023-06-14T01:30:49;12.88;92.08
72320;SHT30;60269;52.502;16.732;2023-06-14T01:34:24;12.77;92.39
72320;SHT30;60269;52.502;16.732;2023-06-14T01:37:56;12.76;92.75
72320;SHT30;60269;52.502;16.732;2023-06-14T01:41:30;12.76;92.93
72320;SHT30;60269;52.502;16.732;2023-06-14T01:45:07;12.68;93.32
72320;SHT30;60269;52.502;16.732;2023-06-14T01:48:39;12.61;93.61
72320;SHT30;60269;52.502;16.732;2023-06-14T01:52:11;12.57;93.89
72320;SHT30;60269;52.502;16.732;2023-06-14T01:55:44;12.46;93.86
72320;SHT30;60269;52.502;16.732;2023-06-14T01:59:20;12.45;93.92
72320;SHT30;60269;52.502;16.732;2023-06-14T02:02:52;12.42;94.08
72320;SHT30;60269;52.502;16.732;2023-06-14T02:06:24;12.36;94.30
72320;SHT30;60269;52.502;16.732;2023-06-14T02:09:56;12.29;94.53
72320;SHT30;60269;52.502;16.732;2023-06-14T02:13:28;12.29;94.29
72320;SHT30;60269;52.502;16.732;2023-06-14T02:17:04;12.28;94.39
72320;SHT30;60269;52.502;16.732;2023-06-14T02:20:36;12.24;94.67
72320;SHT30;60269;52.502;16.732;2023-06-14T02:24:08;12.26;94.93
72320;SHT30;60269;52.502;16.732;2023-06-14T02:27:40;12.30;94.89
72320;SHT30;60269;52.502;16.732;2023-06-14T02:31:12;12.35;94.76
72320;SHT30;60269;52.502;16.732;2023-06-14T02:34:49;12.39;94.52
72320;SHT30;60269;52.502;16.732;2023-06-14T02:38:27;12.49;94.12
72320;SHT30;60269;52.502;16.732;2023-06-14T02:42:00;12.47;94.23
72320;SHT30;60269;52.502;16.732;2023-06-14T02:45:32;12.49;93.94
72320;SHT30;60269;52.502;16.732;2023-06-14T02:49:04;12.56;93.58
72320;SHT30;60269;52.502;16.732;2023-06-14T02:52:37;12.60;93.35
72320;SHT30;60269;52.502;16.732;2023-06-14T02:56:09;12.60;93.38
72320;SHT30;60269;52.502;16.732;2023-06-14T02:59:41;12.61;93.21
72320;SHT30;60269;52.502;16.732;2023-06-14T03:03:13;12.66;92.77
72320;SHT30;60269;52.502;16.732;2023-06-14T03:06:48;12.67;93.01
72320;SHT30;60269;52.502;16.732;2023-06-14T03:10:22;12.66;92.58
72320;SHT30;60269;52.502;16.732;2023-06-14T03:13:54;12.77;92.15
72320;SHT30;60269;52.502;16.732;2023-06-14T03:17:27;12.73;92.22
72320;SHT30;60269;52.502;16.732;2023-06-14T03:21:02;12.76;91.99
72320;SHT30;60269;52.502;16.732;2023-06-14T03:24:34;12.74;91.68
72320;SHT30;60269;52.502;16.732;2023-06-14T03:28:08;12.73;91.69
72320;SHT30;60269;52.502;16.732;2023-06-14T03:31:59;12.79;91.43
72320;SHT30;60269;52.502;16.732;2023-06-14T03:35:31;12.70;91.98
72320;SHT30;60269;52.502;16.732;2023-06-14T03:39:04;12.79;91.61
72320;SHT30;60269;52.502;16.732;2023-06-14T03:42:35;12.81;91.67
72320;SHT30;60269;52.502;16.732;2023-06-14T03:46:07;12.87;91.47
72320;SHT30;60269;52.502;16.732;2023-06-14T03:49:39;13.00;90.73
72320;SHT30;60269;52.502;16.732;2023-06-14T03:53:12;13.10;90.22
72320;SHT30;60269;52.502;16.732;2023-06-14T03:56:44;13.16;90.17
72320;SHT30;60269;52.502;16.732;2023-06-14T04:00:17;13.24;89.80
72320;SHT30;60269;52.502;16.732;2023-06-14T04:03:50;13.36;89.20
72320;SHT30;60269;52.502;16.732;2023-06-14T04:07:22;13.39;88.86
72320;SHT30;60269;52.502;16.732;2023-06-14T04:10:55;13.55;88.88
72320;SHT30;60269;52.502;16.732;2023-06-14T04:14:27;13.66;88.15
72320;SHT30;60269;52.502;16.732;2023-06-14T04:18:00;13.73;87.50
72320;SHT30;60269;52.502;16.732;2023-06-14T04:21:32;13.79;87.10
72320;SHT30;60269;52.502;16.732;2023-06-14T04:25:07;13.79;87.33
72320;SHT30;60269;52.502;16.732;2023-06-14T04:28:40;13.83;86.99
72320;SHT30;60269;52.502;16.732;2023-06-14T04:32:12;13.83;87.08
72320;SHT30;60269;52.502;16.732;2023-06-14T04:35:45;13.89;86.67
72320;SHT30;60269;52.502;16.732;2023-06-14T04:39:20;13.91;86.94
72320;SHT30;60269;52.502;16.732;2023-06-14T04:42:54;13.97;86.51
72320;SHT30;60269;52.502;16.732;2023-06-14T04:46:28;14.01;86.23
72320;SHT30;60269;52.502;16.732;2023-06-14T04:50:00;14.03;86.13
72320;SHT30;60269;52.502;16.732;2023-06-14T04:53:35;14.00;85.95
72320;SHT30;60269;52.502;16.732;2023-06-14T04:57:08;14.03;85.92
72320;SHT30;60269;52.502;16.732;2023-06-14T05:00:41;14.06;85.10
72320;SHT30;60269;52.502;16.732;2023-06-14T05:04:16;14.09;84.75
72320;SHT30;60269;52.502;16.732;2023-06-14T05:07:48;14.28;84.16
72320;SHT30;60269;52.502;16.732;2023-06-14T05:11:20;14.45;83.76
72320;SHT30;60269;52.502;16.732;2023-06-14T05:14:52;14.72;83.80
72320;SHT30;60269;52.502;16.732;2023-06-14T05:18:24;14.78;83.76
72320;SHT30;60269;52.502;16.732;2023-06-14T05:21:57;14.82;83.38
72320;SHT30;60269;52.502;16.732;2023-06-14T05:25:29;15.00;81.82
72320;SHT30;60269;52.502;16.732;2023-06-14T05:29:01;15.07;81.61
72320;SHT30;60269;52.502;16.732;2023-06-14T05:32:34;15.30;80.79
72320;SHT30;60269;52.502;16.732;2023-06-14T05:36:07;15.50;80.41
72320;SHT30;60269;52.502;16.732;2023-06-14T05:39:39;15.67;79.68
72320;SHT30;60269;52.502;16.732;2023-06-14T05:43:11;15.91;78.00
72320;SHT30;60269;52.502;16.732;2023-06-14T05:46:43;16.17;77.42
72320;SHT30;60269;52.502;16.732;2023-06-14T05:50:16;16.42;76.51
72320;SHT30;60269;52.502;16.732;2023-06-14T05:53:48;16.36;76.49
72320;SHT30;60269;52.502;16.732;2023-06-14T05:57:20;16.57;75.55
72320;SHT30;60269;52.502;16.732;2023-06-14T06:00:52;16.64;75.57
72320;SHT30;60269;52.502;16.732;2023-06-14T06:04:25;16.78;75.31
72320;SHT30;60269;52.502;16.732;2023-06-14T06:07:57;16.89;74.63
72320;SHT30;60269;52.502;16.732;2023-06-14T06:11:29;17.05;74.47
72320;SHT30;60269;52.502;16.732;2023-06-14T06:15:20;17.08;73.81
72320;SHT30;60269;52.502;16.732;2023-06-14T06:18:54;17.21;73.51
72320;SHT30;60269;52.502;16.732;2023-06-14T06:22:26;17.65;71.93
72320;SHT30;60269;52.502;16.732;2023-06-14T06:25:58;18.10;70.79
72320;SHT30;60269;52.502;16.732;2023-06-14T06:29:30;18.41;69.56
72320;SHT30;60269;52.502;16.732;2023-06-14T06:33:02;18.70;68.05
72320;SHT30;60269;52.502;16.732;2023-06-14T06:36:35;19.06;67.03
72320;SHT30;60269;52.502;16.732;2023-06-14T06:40:07;19.18;66.22
72320;SHT30;60269;52.502;16.732;2023-06-14T06:43:40;19.10;66.59
72320;SHT30;60269;52.502;16.732;2023-06-14T06:47:12;18.79;66.83
72320;SHT30;60269;52.502;16.732;2023-06-14T06:50:44;18.72;66.96
72320;SHT30;60269;52.502;16.732;2023-06-14T06:54:16;18.51;66.66
72320;SHT30;60269;52.502;16.732;2023-06-14T06:57:48;18.80;65.17
72320;SHT30;60269;52.502;16.732;2023-06-14T07:01:21;19.07;64.47
72320;SHT30;60269;52.502;16.732;2023-06-14T07:04:53;19.35;63.04
72320;SHT30;60269;52.502;16.732;2023-06-14T07:08:26;19.39;63.50
72320;SHT30;60269;52.502;16.732;2023-06-14T07:11:58;19.30;65.03
72320;SHT30;60269;52.502;16.732;2023-06-14T07:15:30;19.58;62.33
72320;SHT30;60269;52.502;16.732;2023-06-14T07:19:03;20.27;61.37
72320;SHT30;60269;52.502;16.732;2023-06-14T07:22:35;20.36;58.68
72320;SHT30;60269;52.502;16.732;2023-06-14T07:26:07;20.81;57.30
72320;SHT30;60269;52.502;16.732;2023-06-14T07:29:39;21.28;56.48
72320;SHT30;60269;52.502;16.732;2023-06-14T07:33:11;20.96;57.14
72320;SHT30;60269;52.502;16.732;2023-06-14T07:36:44;20.27;58.23
72320;SHT30;60269;52.502;16.732;2023-06-14T07:40:17;19.87;59.41
72320;SHT30;60269;52.502;16.732;2023-06-14T07:43:49;19.61;59.02
72320;SHT30;60269;52.502;16.732;2023-06-14T07:47:21;19.92;60.03
72320;SHT30;60269;52.502;16.732;2023-06-14T07:50:53;20.43;57.93
72320;SHT30;60269;52.502;16.732;2023-06-14T07:54:25;20.63;56.77
72320;SHT30;60269;52.502;16.732;2023-06-14T07:57:58;21.30;54.40
72320;SHT30;60269;52.502;16.732;2023-06-14T08:01:30;21.47;53.93
72320;SHT30;60269;52.502;16.732;2023-06-14T08:05:02;21.58;53.48
72320;SHT30;60269;52.502;16.732;2023-06-14T08:08:34;21.93;53.09
72320;SHT30;60269;52.502;16.732;2023-06-14T08:12:07;22.11;52.55
72320;SHT30;60269;52.502;16.732;2023-06-14T08:15:41;21.88;52.77
72320;SHT30;60269;52.502;16.732;2023-06-14T08:19:13;21.36;54.66
72320;SHT30;60269;52.502;16.732;2023-06-14T08:22:45;21.50;59.84
72320;SHT30;60269;52.502;16.732;2023-06-14T08:26:19;20.65;61.05
72320;SHT30;60269;52.502;16.732;2023-06-14T08:29:51;19.90;61.07
72320;SHT30;60269;52.502;16.732;2023-06-14T08:33:23;20.05;59.68
72320;SHT30;60269;52.502;16.732;2023-06-14T08:36:56;20.16;60.01
72320;SHT30;60269;52.502;16.732;2023-06-14T08:40:30;20.06;60.10
72320;SHT30;60269;52.502;16.732;2023-06-14T08:44:03;19.78;68.08
72320;SHT30;60269;52.502;16.732;2023-06-14T08:47:35;19.47;61.53
72320;SHT30;60269;52.502;16.732;2023-06-14T08:51:13;19.71;60.32
72320;SHT30;60269;52.502;16.732;2023-06-14T08:54:48;19.89;59.78
72320;SHT30;60269;52.502;16.732;2023-06-14T08:58:20;19.97;58.14
72320;SHT30;60269;52.502;16.732;2023-06-14T09:01:53;19.82;57.45
72320;SHT30;60269;52.502;16.732;2023-06-14T09:05:43;20.39;56.86
72320;SHT30;60269;52.502;16.732;2023-06-14T09:09:16;21.64;53.15
72320;SHT30;60269;52.502;16.732;2023-06-14T09:12:49;22.70;51.24
72320;SHT30;60269;52.502;16.732;2023-06-14T09:16:21;24.00;47.32
72320;SHT30;60269;52.502;16.732;2023-06-14T09:19:55;24.81;45.63
72320;SHT30;60269;52.502;16.732;2023-06-14T09:23:27;25.36;44.86
72320;SHT30;60269;52.502;16.732;2023-06-14T09:26:59;25.66;43.17
72320;SHT30;60269;52.502;16.732;2023-06-14T09:30:31;26.40;42.49
72320;SHT30;60269;52.502;16.732;2023-06-14T09:34:04;27.89;39.16
72320;SHT30;60269;52.502;16.732;2023-06-14T09:37:36;28.87;37.51
72320;SHT30;60269;52.502;16.732;2023-06-14T09:41:11;29.29;35.49
72320;SHT30;60269;52.502;16.732;2023-06-14T09:44:46;29.56;35.91
72320;SHT30;60269;52.502;16.732;2023-06-14T09:48:18;29.25;36.81
72320;SHT30;60269;52.502;16.732;2023-06-14T09:51:52;28.87;36.81
72320;SHT30;60269;52.502;16.732;2023-06-14T09:55:27;28.58;38.13
72320;SHT30;60269;52.502;16.732;2023-06-14T09:59:04;30.02;35.62
72320;SHT30;60269;52.502;16.732;2023-06-14T10:02:39;29.56;35.87
72320;SHT30;60269;52.502;16.732;2023-06-14T10:06:15;29.43;35.18
72320;SHT30;60269;52.502;16.732;2023-06-14T10:09:47;29.06;36.10
72320;SHT30;60269;52.502;16.732;2023-06-14T10:13:22;28.14;36.89
72320;SHT30;60269;52.502;16.732;2023-06-14T10:17:02;29.02;35.68
72320;SHT30;60269;52.502;16.732;2023-06-14T10:20:42;29.46;34.48
72320;SHT30;60269;52.502;16.732;2023-06-14T10:24:18;30.36;34.06
72320;SHT30;60269;52.502;16.732;2023-06-14T10:27:51;31.68;30.60
72320;SHT30;60269;52.502;16.732;2023-06-14T10:31:39;31.55;31.34
72320;SHT30;60269;52.502;16.732;2023-06-14T10:35:16;31.45;31.99
72320;SHT30;60269;52.502;16.732;2023-06-14T10:39:14;29.97;33.88
72320;SHT30;60269;52.502;16.732;2023-06-14T10:42:55;29.80;34.46
72320;SHT30;60269;52.502;16.732;2023-06-14T10:46:28;29.00;35.00
72320;SHT30;60269;52.502;16.732;2023-06-14T10:50:08;28.14;36.59
72320;SHT30;60269;52.502;16.732;2023-06-14T10:53:42;26.86;38.87
72320;SHT30;60269;52.502;16.732;2023-06-14T10:57:14;26.76;38.83
72320;SHT30;60269;52.502;16.732;2023-06-14T11:00:47;26.33;40.06
72320;SHT30;60269;52.502;16.732;2023-06-14T11:04:20;26.05;40.03
72320;SHT30;60269;52.502;16.732;2023-06-14T11:12:10;26.11;39.60
72320;SHT30;60269;52.502;16.732;2023-06-14T11:15:45;26.26;38.86
72320;SHT30;60269;52.502;16.732;2023-06-14T11:19:18;26.88;38.17
72320;SHT30;60269;52.502;16.732;2023-06-14T11:22:52;27.20;37.53
72320;SHT30;60269;52.502;16.732;2023-06-14T11:26:26;27.56;36.00
72320;SHT30;60269;52.502;16.732;2023-06-14T11:29:59;28.14;35.43
72320;SHT30;60269;52.502;16.732;2023-06-14T11:33:31;28.67;34.47
72320;SHT30;60269;52.502;16.732;2023-06-14T11:37:04;29.26;34.01
72320;SHT30;60269;52.502;16.732;2023-06-14T11:40:38;30.43;32.69
72320;SHT30;60269;52.502;16.732;2023-06-14T11:44:11;30.88;31.57
72320;SHT30;60269;52.502;16.732;2023-06-14T11:47:43;30.94;31.01
72320;SHT30;60269;52.502;16.732;2023-06-14T11:51:16;30.56;30.95
72320;SHT30;60269;52.502;16.732;2023-06-14T11:54:49;29.81;31.70
72320;SHT30;60269;52.502;16.732;2023-06-14T11:58:22;29.57;32.54
72320;SHT30;60269;52.502;16.732;2023-06-14T12:01:54;29.23;33.10
72320;SHT30;60269;52.502;16.732;2023-06-14T12:05:27;29.37;32.35
72320;SHT30;60269;52.502;16.732;2023-06-14T12:09:00;30.15;31.33
72320;SHT30;60269;52.502;16.732;2023-06-14T12:12:37;29.13;33.09
72320;SHT30;60269;52.502;16.732;2023-06-14T12:16:11;28.34;34.14
72320;SHT30;60269;52.502;16.732;2023-06-14T12:19:44;28.23;32.04
72320;SHT30;60269;52.502;16.732;2023-06-14T12:23:17;29.73;29.78
72320;SHT30;60269;52.502;16.732;2023-06-14T12:26:51;31.39;27.74
72320;SHT30;60269;52.502;16.732;2023-06-14T12:30:24;30.90;28.71
72320;SHT30;60269;52.502;16.732;2023-06-14T12:33:59;30.19;29.15
72320;SHT30;60269;52.502;16.732;2023-06-14T12:37:31;29.47;29.93
72320;SHT30;60269;52.502;16.732;2023-06-14T12:41:03;30.84;28.51
72320;SHT30;60269;52.502;16.732;2023-06-14T12:44:36;31.92;27.52
72320;SHT30;60269;52.502;16.732;2023-06-14T12:48:13;31.42;28.01
72320;SHT30;60269;52.502;16.732;2023-06-14T12:51:44;30.16;30.23
72320;SHT30;60269;52.502;16.732;2023-06-14T12:55:17;29.16;31.39
72320;SHT30;60269;52.502;16.732;2023-06-14T12:58:50;29.16;30.08
72320;SHT30;60269;52.502;16.732;2023-06-14T13:02:22;28.83;30.69
72320;SHT30;60269;52.502;16.732;2023-06-14T13:05:56;30.45;28.88
72320;SHT30;60269;52.502;16.732;2023-06-14T13:09:29;31.88;26.59
72320;SHT30;60269;52.502;16.732;2023-06-14T13:13:02;32.63;25.96
72320;SHT30;60269;52.502;16.732;2023-06-14T13:16:36;30.87;27.46
72320;SHT30;60269;52.502;16.732;2023-06-14T13:20:11;29.95;28.97
72320;SHT30;60269;52.502;16.732;2023-06-14T13:23:43;29.09;29.76
72320;SHT30;60269;52.502;16.732;2023-06-14T13:27:16;28.40;31.92
72320;SHT30;60269;52.502;16.732;2023-06-14T13:30:48;28.21;33.31
72320;SHT30;60269;52.502;16.732;2023-06-14T13:34:20;28.20;32.36
72320;SHT30;60269;52.502;16.732;2023-06-14T13:37:52;28.58;31.46
72320;SHT30;60269;52.502;16.732;2023-06-14T14:02:12;29.08;30.27
72320;SHT30;60269;52.502;16.732;2023-06-14T14:05:45;28.54;30.53
72320;SHT30;60269;52.502;16.732;2023-06-14T14:09:18;29.23;28.78
72320;SHT30;60269;52.502;16.732;2023-06-14T14:12:55;29.18;29.96
72320;SHT30;60269;52.502;16.732;2023-06-14T14:16:31;28.72;30.44
72320;SHT30;60269;52.502;16.732;2023-06-14T14:20:04;29.00;30.36
72320;SHT30;60269;52.502;16.732;2023-06-14T14:23:36;28.81;30.96
72320;SHT30;60269;52.502;16.732;2023-06-14T14:27:10;28.20;31.20
72320;SHT30;60269;52.502;16.732;2023-06-14T14:30:43;27.23;32.78
72320;SHT30;60269;52.502;16.732;2023-06-14T14:34:17;26.83;33.22
72320;SHT30;60269;52.502;16.732;2023-06-14T14:37:48;26.57;34.31
72320;SHT30;60269;52.502;16.732;2023-06-14T14:41:21;26.28;33.98
72320;SHT30;60269;52.502;16.732;2023-06-14T14:44:55;26.21;33.91
72320;SHT30;60269;52.502;16.732;2023-06-14T14:48:28;26.28;33.96
72320;SHT30;60269;52.502;16.732;2023-06-14T14:52:00;26.29;34.15
72320;SHT30;60269;52.502;16.732;2023-06-14T14:55:53;26.02;34.28
72320;SHT30;60269;52.502;16.732;2023-06-14T14:59:25;26.00;34.68
72320;SHT30;60269;52.502;16.732;2023-06-14T15:02:59;26.14;36.02
72320;SHT30;60269;52.502;16.732;2023-06-14T15:06:31;26.14;35.59
72320;SHT30;60269;52.502;16.732;2023-06-14T15:10:06;25.84;35.54
72320;SHT30;60269;52.502;16.732;2023-06-14T15:13:38;25.15;38.99
72320;SHT30;60269;52.502;16.732;2023-06-14T15:17:10;24.63;40.58
72320;SHT30;60269;52.502;16.732;2023-06-14T15:20:42;24.21;41.76
72320;SHT30;60269;52.502;16.732;2023-06-14T15:24:14;23.69;42.52
72320;SHT30;60269;52.502;16.732;2023-06-14T15:27:55;23.37;43.60
72320;SHT30;60269;52.502;16.732;2023-06-14T15:31:27;23.21;43.82
72320;SHT30;60269;52.502;16.732;2023-06-14T15:35:01;22.86;44.18
72320;SHT30;60269;52.502;16.732;2023-06-14T15:38:33;22.57;44.71
72320;SHT30;60269;52.502;16.732;2023-06-14T15:42:06;22.38;44.79
72320;SHT30;60269;52.502;16.732;2023-06-14T16:21:47;20.87;47.50
72320;SHT30;60269;52.502;16.732;2023-06-14T16:25:19;20.65;47.37
72320;SHT30;60269;52.502;16.732;2023-06-14T16:28:53;20.52;47.17
72320;SHT30;60269;52.502;16.732;2023-06-14T16:32:25;20.40;47.59
72320;SHT30;60269;52.502;16.732;2023-06-14T16:35:57;20.20;47.72
72320;SHT30;60269;52.502;16.732;2023-06-14T16:39:29;20.12;49.22
72320;SHT30;60269;52.502;16.732;2023-06-14T16:43:01;19.72;51.89
72320;SHT30;60269;52.502;16.732;2023-06-14T16:46:34;19.07;62.35
72320;SHT30;60269;52.502;16.732;2023-06-14T16:50:07;16.77;76.79
72320;SHT30;60269;52.502;16.732;2023-06-14T16:53:39;15.86;81.35
72320;SHT30;60269;52.502;16.732;2023-06-14T16:57:11;15.34;85.38
72320;SHT30;60269;52.502;16.732;2023-06-14T17:00:43;15.07;87.50
72320;SHT30;60269;52.502;16.732;2023-06-14T17:04:15;15.00;88.49
72320;SHT30;60269;52.502;16.732;2023-06-14T17:07:47;15.26;86.23
72320;SHT30;60269;52.502;16.732;2023-06-14T17:11:21;15.40;85.43
72320;SHT30;60269;52.502;16.732;2023-06-14T17:14:55;15.50;85.46
72320;SHT30;60269;52.502;16.732;2023-06-14T17:18:26;15.61;82.39
72320;SHT30;60269;52.502;16.732;2023-06-14T17:21:59;15.75;82.96
72320;SHT30;60269;52.502;16.732;2023-06-14T17:25:31;15.81;84.70
72320;SHT30;60269;52.502;16.732;2023-06-14T17:29:04;15.88;82.72
72320;SHT30;60269;52.502;16.732;2023-06-14T17:32:36;15.94;81.55
72320;SHT30;60269;52.502;16.732;2023-06-14T17:36:09;16.06;80.86
72320;SHT30;60269;52.502;16.732;2023-06-14T17:39:41;16.10;81.51
72320;SHT30;60269;52.502;16.732;2023-06-14T17:43:13;16.25;81.36
72320;SHT30;60269;52.502;16.732;2023-06-14T17:46:46;16.36;81.10
72320;SHT30;60269;52.502;16.732;2023-06-14T17:50:18;16.37;79.88
72320;SHT30;60269;52.502;16.732;2023-06-14T17:53:50;16.33;79.56
72320;SHT30;60269;52.502;16.732;2023-06-14T17:57:23;16.36;79.73
72320;SHT30;60269;52.502;16.732;2023-06-14T18:00:55;16.44;79.77
72320;SHT30;60269;52.502;16.732;2023-06-14T18:04:29;16.60;76.39
72320;SHT30;60269;52.502;16.732;2023-06-14T18:08:01;16.64;75.63
72320;SHT30;60269;52.502;16.732;2023-06-14T18:11:33;16.63;76.67
72320;SHT30;60269;52.502;16.732;2023-06-14T18:15:06;16.89;76.29
72320;SHT30;60269;52.502;16.732;2023-06-14T18:18:38;16.95;73.44
72320;SHT30;60269;52.502;16.732;2023-06-14T18:22:11;16.91;74.23
72320;SHT30;60269;52.502;16.732;2023-06-14T18:25:43;16.73;75.80
72320;SHT30;60269;52.502;16.732;2023-06-14T18:29:17;16.53;76.91
72320;SHT30;60269;52.502;16.732;2023-06-14T18:32:59;16.50;76.06
72320;SHT30;60269;52.502;16.732;2023-06-14T18:36:31;16.50;75.95
72320;SHT30;60269;52.502;16.732;2023-06-14T18:40:09;16.39;76.87
72320;SHT30;60269;52.502;16.732;2023-06-14T18:43:42;16.36;76.26
72320;SHT30;60269;52.502;16.732;2023-06-14T18:47:15;16.32;76.04
72320;SHT30;60269;52.502;16.732;2023-06-14T18:50:50;16.37;75.31
72320;SHT30;60269;52.502;16.732;2023-06-14T18:54:23;16.39;75.89
72320;SHT30;60269;52.502;16.732;2023-06-14T18:57:58;16.32;76.87
72320;SHT30;60269;52.502;16.732;2023-06-14T19:01:30;16.23;76.97
72320;SHT30;60269;52.502;16.732;2023-06-14T19:05:05;16.20;76.27
72320;SHT30;60269;52.502;16.732;2023-06-14T19:08:38;16.08;77.42
72320;SHT30;60269;52.502;16.732;2023-06-14T19:12:10;16.01;78.07
72320;SHT30;60269;52.502;16.732;2023-06-14T19:15:43;15.88;78.15
72320;SHT30;60269;52.502;16.732;2023-06-14T19:19:15;15.75;78.08
72320;SHT30;60269;52.502;16.732;2023-06-14T19:22:47;15.67;78.63
72320;SHT30;60269;52.502;16.732;2023-06-14T19:26:20;15.64;77.75
72320;SHT30;60269;52.502;16.732;2023-06-14T19:29:52;15.72;77.37
72320;SHT30;60269;52.502;16.732;2023-06-14T19:33:24;15.85;77.48
72320;SHT30;60269;52.502;16.732;2023-06-14T19:36:56;15.88;76.86
72320;SHT30;60269;52.502;16.732;2023-06-14T19:40:31;15.84;77.64
72320;SHT30;60269;52.502;16.732;2023-06-14T19:44:04;15.79;79.03
72320;SHT30;60269;52.502;16.732;2023-06-14T19:47:36;15.71;80.10
72320;SHT30;60269;52.502;16.732;2023-06-14T19:51:08;15.57;80.24
72320;SHT30;60269;52.502;16.732;2023-06-14T19:54:40;15.46;80.16
72320;SHT30;60269;52.502;16.732;2023-06-14T19:58:12;15.43;79.98
72320;SHT30;60269;52.502;16.732;2023-06-14T20:01:44;15.50;78.93
72320;SHT30;60269;52.502;16.732;2023-06-14T20:05:17;15.55;78.18
72320;SHT30;60269;52.502;16.732;2023-06-14T20:08:49;15.58;77.35
72320;SHT30;60269;52.502;16.732;2023-06-14T20:12:21;15.68;76.42
72320;SHT30;60269;52.502;16.732;2023-06-14T20:15:54;15.69;75.75
72320;SHT30;60269;52.502;16.732;2023-06-14T20:19:27;15.69;75.49
72320;SHT30;60269;52.502;16.732;2023-06-14T20:22:59;15.74;75.13
72320;SHT30;60269;52.502;16.732;2023-06-14T20:26:34;15.71;75.83
72320;SHT30;60269;52.502;16.732;2023-06-14T20:30:06;15.78;75.75
72320;SHT30;60269;52.502;16.732;2023-06-14T20:33:39;15.82;75.85
72320;SHT30;60269;52.502;16.732;2023-06-14T20:37:11;15.74;77.00
72320;SHT30;60269;52.502;16.732;2023-06-14T20:40:43;15.67;78.02
72320;SHT30;60269;52.502;16.732;2023-06-14T20:44:15;15.50;79.55
72320;SHT30;60269;52.502;16.732;2023-06-14T20:47:48;15.44;79.76
72320;SHT30;60269;52.502;16.732;2023-06-14T20:51:20;15.38;81.05
72320;SHT30;60269;52.502;16.732;2023-06-14T20:54:53;15.43;81.93
72320;SHT30;60269;52.502;16.732;2023-06-14T20:58:27;15.41;81.22
72320;SHT30;60269;52.502;16.732;2023-06-14T21:01:59;15.31;81.14
72320;SHT30;60269;52.502;16.732;2023-06-14T21:05:32;15.23;81.81
72320;SHT30;60269;52.502;16.732;2023-06-14T21:09:04;15.11;82.60
72320;SHT30;60269;52.502;16.732;2023-06-14T21:12:36;14.95;83.22
72320;SHT30;60269;52.502;16.732;2023-06-14T21:16:08;14.83;84.27
72320;SHT30;60269;52.502;16.732;2023-06-14T21:19:40;14.79;83.75
72320;SHT30;60269;52.502;16.732;2023-06-14T21:23:15;14.78;84.53
72320;SHT30;60269;52.502;16.732;2023-06-14T21:26:48;14.73;84.45
72320;SHT30;60269;52.502;16.732;2023-06-14T21:30:31;14.73;84.73
72320;SHT30;60269;52.502;16.732;2023-06-14T21:34:05;14.64;85.06
72320;SHT30;60269;52.502;16.732;2023-06-14T21:37:37;14.49;86.28
72320;SHT30;60269;52.502;16.732;2023-06-14T21:41:10;14.40;87.28
72320;SHT30;60269;52.502;16.732;2023-06-14T21:44:43;14.25;88.32
72320;SHT30;60269;52.502;16.732;2023-06-14T21:48:18;14.14;89.26
72320;SHT30;60269;52.502;16.732;2023-06-14T21:51:50;14.06;89.42
72320;SHT30;60269;52.502;16.732;2023-06-14T21:55:22;14.04;89.76
72320;SHT30;60269;52.502;16.732;2023-06-14T21:58:55;14.01;89.72
72320;SHT30;60269;52.502;16.732;2023-06-14T22:02:27;13.97;89.98
72320;SHT30;60269;52.502;16.732;2023-06-14T22:06:00;13.99;89.99
72320;SHT30;60269;52.502;16.732;2023-06-14T22:09:32;14.01;89.61
72320;SHT30;60269;52.502;16.732;2023-06-14T22:13:05;13.97;89.46
72320;SHT30;60269;52.502;16.732;2023-06-14T22:16:41;13.99;89.28
72320;SHT30;60269;52.502;16.732;2023-06-14T22:20:16;13.93;89.35
72320;SHT30;60269;52.502;16.732;2023-06-14T22:23:49;13.87;89.86
72320;SHT30;60269;52.502;16.732;2023-06-14T22:27:22;13.79;89.90
72320;SHT30;60269;52.502;16.732;2023-06-14T22:30:58;13.87;89.48
72320;SHT30;60269;52.502;16.732;2023-06-14T22:34:30;13.91;89.03
72320;SHT30;60269;52.502;16.732;2023-06-14T22:38:04;13.87;89.11
72320;SHT30;60269;52.502;16.732;2023-06-14T22:41:40;13.87;88.90
72320;SHT30;60269;52.502;16.732;2023-06-14T22:45:18;13.79;89.13
72320;SHT30;60269;52.502;16.732;2023-06-14T22:48:57;13.67;89.51
72320;SHT30;60269;52.502;16.732;2023-06-14T22:52:31;13.72;89.69
72320;SHT30;60269;52.502;16.732;2023-06-14T22:56:06;13.62;90.27
72320;SHT30;60269;52.502;16.732;2023-06-14T22:59:39;13.62;90.53
72320;SHT30;60269;52.502;16.732;2023-06-14T23:03:12;13.55;90.98
72320;SHT30;60269;52.502;16.732;2023-06-14T23:06:45;13.53;91.12
72320;SHT30;60269;52.502;16.732;2023-06-14T23:10:19;13.61;90.90
72320;SHT30;60269;52.502;16.732;2023-06-14T23:13:55;13.62;90.91